createdAt,value
2023-05-02T00:00:01.644Z,98486.88
2023-05-02T00:01:46.657Z,98485.42
2023-05-02T00:03:08.478Z,98486.50
2023-05-02T00:04:30.648Z,98483.98
2023-05-02T00:05:52.300Z,98483.69
2023-05-02T00:07:13.997Z,98486.86
2023-05-02T00:08:36.173Z,98480.73
2023-05-02T00:10:00.713Z,98479.70
2023-05-02T00:11:34.649Z,98475.30
2023-05-02T00:12:56.210Z,98475.34
2023-05-02T00:14:17.935Z,98476.34
2023-05-02T00:15:40.120Z,98475.88
2023-05-02T00:17:13.724Z,98474.72
2023-05-02T00:18:35.421Z,98476.50
2023-05-02T00:19:57.468Z,98475.35
2023-05-02T00:21:22.339Z,98476.42
2023-05-02T00:22:55.740Z,98472.99
2023-05-02T00:24:19.724Z,98470.86
2023-05-02T00:25:43.909Z,98468.22
2023-05-02T00:27:06.184Z,98470.78
2023-05-02T00:28:28.450Z,98468.36
2023-05-02T00:29:59.636Z,98470.98
2023-05-02T00:31:40.372Z,98468.59
2023-05-02T00:33:02.685Z,98465.53
2023-05-02T00:34:26.657Z,98461.81
2023-05-02T00:35:55.789Z,98461.81
2023-05-02T00:37:17.513Z,98462.96
2023-05-02T00:38:39.405Z,98461.17
2023-05-02T00:40:13.059Z,98459.96
2023-05-02T00:41:37.245Z,98458.27
2023-05-02T00:43:20.047Z,98455.02
2023-05-02T00:44:45.126Z,98452.86
2023-05-02T00:46:09.064Z,98455.29
2023-05-02T00:47:31.537Z,98450.90
2023-05-02T00:48:53.286Z,98445.27
2023-05-02T00:50:15.110Z,98447.95
2023-05-02T00:51:44.191Z,98444.25
2023-05-02T00:53:12.964Z,98441.95
2023-05-02T00:54:34.902Z,98441.84
2023-05-02T00:55:56.976Z,98440.42
2023-05-02T00:57:26.801Z,98435.74
2023-05-02T00:58:48.678Z,98433.85
2023-05-02T01:00:12.721Z,98435.88
2023-05-02T01:01:42.115Z,98431.45
2023-05-02T01:03:06.561Z,98428.21
2023-05-02T01:04:28.079Z,98430.20
2023-05-02T01:05:52.383Z,98429.55
2023-05-02T01:07:14.136Z,98417.71
2023-05-02T01:08:38.109Z,98424.39
2023-05-02T01:10:00.077Z,98425.33
2023-05-02T01:11:26.368Z,98424.66
2023-05-02T01:12:48.352Z,98424.91
2023-05-02T01:14:12.255Z,98423.16
2023-05-02T01:15:37.527Z,98423.73
2023-05-02T01:17:06.852Z,98425.55
2023-05-02T01:18:28.422Z,98425.81
2023-05-02T01:19:52.695Z,98425.81
2023-05-02T01:21:22.297Z,98425.31
2023-05-02T01:22:48.841Z,98423.54
2023-05-02T01:24:10.479Z,98418.98
2023-05-02T01:25:46.739Z,98418.05
2023-05-02T01:27:10.780Z,98415.77
2023-05-02T01:28:32.736Z,98418.11
2023-05-02T01:29:54.727Z,98420.50
2023-05-02T01:31:26.247Z,98416.44
2023-05-02T01:32:48.450Z,98416.41
2023-05-02T01:34:12.419Z,98414.90
2023-05-02T01:35:34.355Z,98412.05
2023-05-02T01:36:56.643Z,98408.99
2023-05-02T01:38:21.057Z,98408.89
2023-05-02T01:39:50.304Z,98408.34
2023-05-02T01:41:16.288Z,98409.16
2023-05-02T01:42:57.219Z,98407.58
2023-05-02T01:44:18.773Z,98407.64
2023-05-02T01:45:40.901Z,98404.64
2023-05-02T01:47:03.486Z,98401.55
2023-05-02T01:48:28.357Z,98398.24
2023-05-02T01:50:04.273Z,98397.02
2023-05-02T01:51:40.640Z,98392.71
2023-05-02T01:53:14.687Z,98395.17
2023-05-02T01:54:38.924Z,98390.77
2023-05-02T01:56:12.203Z,98397.73
2023-05-02T01:57:47.866Z,98395.45
2023-05-02T01:59:09.821Z,98393.45
2023-05-02T02:00:34.491Z,98393.18
2023-05-02T02:02:04.027Z,98390.05
2023-05-02T02:03:25.992Z,98391.14
2023-05-02T02:04:48.990Z,98387.55
2023-05-02T02:06:17.519Z,98388.98
2023-05-02T02:07:39.513Z,98386.46
2023-05-02T02:09:04.230Z,98385.63
2023-05-02T02:10:34.047Z,98386.44
2023-05-02T02:11:57.935Z,98380.80
2023-05-02T02:13:21.513Z,98379.39
2023-05-02T02:14:43.397Z,98376.95
2023-05-02T02:16:05.110Z,98380.21
2023-05-02T02:17:26.728Z,98376.92
2023-05-02T02:18:48.880Z,98378.12
2023-05-02T02:20:18.268Z,98378.20
2023-05-02T02:21:42.503Z,98379.92
2023-05-02T02:23:15.978Z,98381.16
2023-05-02T02:24:37.940Z,98382.52
2023-05-02T02:26:06.723Z,98381.05
2023-05-02T02:27:30.747Z,98377.73
2023-05-02T02:28:52.578Z,98382.34
2023-05-02T02:30:16.472Z,98381.93
2023-05-02T02:31:40.695Z,98360.82
2023-05-02T02:33:04.573Z,98382.34
2023-05-02T02:34:27.325Z,98382.02
2023-05-02T02:35:52.801Z,98380.96
2023-05-02T02:37:16.732Z,98381.77
2023-05-02T02:38:42.361Z,98379.42
2023-05-02T02:40:06.607Z,98380.45
2023-05-02T02:41:28.457Z,98382.52
2023-05-02T02:42:53.384Z,98378.34
2023-05-02T02:44:28.853Z,98376.39
2023-05-02T02:45:50.937Z,98379.91
2023-05-02T02:47:12.258Z,98382.80
2023-05-02T02:48:36.706Z,98382.15
2023-05-02T02:50:00.822Z,98382.43
2023-05-02T02:51:22.401Z,98382.20
2023-05-02T02:52:43.926Z,98379.61
2023-05-02T02:54:19.103Z,98382.02
2023-05-02T02:55:50.564Z,98380.34
2023-05-02T02:57:13.024Z,98384.95
2023-05-02T02:58:34.707Z,98383.02
2023-05-02T02:59:58.773Z,98380.91
2023-05-02T03:01:23.280Z,98378.05
2023-05-02T03:02:48.185Z,98383.52
2023-05-02T03:04:09.825Z,98378.89
2023-05-02T03:05:31.898Z,98378.23
2023-05-02T03:06:58.253Z,98378.12
2023-05-02T03:08:20.100Z,98382.34
2023-05-02T03:09:42.093Z,98380.11
2023-05-02T03:11:06.521Z,98369.62
2023-05-02T03:12:40.127Z,98377.38
2023-05-02T03:14:04.168Z,98376.80
2023-05-02T03:15:28.237Z,98375.31
2023-05-02T03:16:55.249Z,98372.61
2023-05-02T03:18:19.420Z,98374.90
2023-05-02T03:19:41.399Z,98374.00
2023-05-02T03:21:05.549Z,98368.25
2023-05-02T03:22:27.439Z,98369.73
2023-05-02T03:23:49.591Z,98371.42
2023-05-02T03:25:25.859Z,98372.94
2023-05-02T03:26:59.922Z,98375.05
2023-05-02T03:28:24.137Z,98373.61
2023-05-02T03:29:46.722Z,98370.55
2023-05-02T03:31:08.902Z,98375.56
2023-05-02T03:32:42.454Z,98375.54
2023-05-02T03:34:07.697Z,98374.67
2023-05-02T03:35:31.656Z,98372.44
2023-05-02T03:36:53.513Z,98374.57
2023-05-02T03:38:15.200Z,98378.28
2023-05-02T03:39:38.325Z,98376.19
2023-05-02T03:41:04.625Z,98375.49
2023-05-02T03:42:41.080Z,98379.30
2023-05-02T03:44:08.370Z,98377.55
2023-05-02T03:45:41.916Z,98378.19
2023-05-02T03:47:15.282Z,98379.50
2023-05-02T03:48:49.522Z,98381.23
2023-05-02T03:50:30.573Z,98378.45
2023-05-02T03:51:52.793Z,98379.42
2023-05-02T03:53:16.246Z,98379.72
2023-05-02T03:54:43.792Z,98368.04
2023-05-02T03:56:05.763Z,98377.30
2023-05-02T03:57:31.484Z,98382.98
2023-05-02T03:58:57.942Z,98378.96
2023-05-02T04:00:31.630Z,98366.77
2023-05-02T04:01:57.885Z,98378.71
2023-05-02T04:03:29.820Z,98384.42
2023-05-02T04:04:53.450Z,98384.05
2023-05-02T04:06:16.540Z,98386.19
2023-05-02T04:07:41.323Z,98386.23
2023-05-02T04:09:03.375Z,98388.96
2023-05-02T04:10:31.855Z,98388.35
2023-05-02T04:11:56.228Z,98388.58
2023-05-02T04:13:18.030Z,98388.88
2023-05-02T04:14:42.250Z,98388.44
2023-05-02T04:16:04.770Z,98389.59
2023-05-02T04:17:43.379Z,98386.92
2023-05-02T04:19:07.682Z,98392.31
2023-05-02T04:20:32.534Z,98393.00
2023-05-02T04:21:54.302Z,98391.80
2023-05-02T04:23:18.049Z,98392.77
2023-05-02T04:24:44.751Z,98392.83
2023-05-02T04:26:07.093Z,98394.77
2023-05-02T04:27:35.372Z,98387.17
2023-05-02T04:29:11.219Z,98393.80
2023-05-02T04:30:45.331Z,98394.02
2023-05-02T04:32:15.552Z,98397.60
2023-05-02T04:33:39.907Z,98400.08
2023-05-02T04:35:15.405Z,98399.81
2023-05-02T04:36:37.892Z,98399.77
2023-05-02T04:38:07.608Z,98401.98
2023-05-02T04:39:29.461Z,98397.45
2023-05-02T04:40:57.586Z,98395.68
2023-05-02T04:42:29.124Z,98398.35
2023-05-02T04:43:59.580Z,98397.60
2023-05-02T04:45:21.094Z,98403.83
2023-05-02T04:46:44.884Z,98401.87
2023-05-02T04:48:09.600Z,98397.88
2023-05-02T04:49:43.362Z,98402.48
2023-05-02T04:51:05.422Z,98402.44
2023-05-02T04:52:29.399Z,98404.19
2023-05-02T04:53:53.407Z,98400.74
2023-05-02T04:55:14.898Z,98400.89
2023-05-02T04:56:39.391Z,98402.36
2023-05-02T04:58:12.882Z,98404.85
2023-05-02T04:59:37.868Z,98405.88
2023-05-02T05:01:00.757Z,98405.70
2023-05-02T05:02:25.845Z,98405.92
2023-05-02T05:03:58.081Z,98406.34
2023-05-02T05:05:20.339Z,98405.17
2023-05-02T05:06:54.671Z,98406.88
2023-05-02T05:08:18.928Z,98407.21
2023-05-02T05:09:45.608Z,98411.00
2023-05-02T05:11:07.147Z,98414.30
2023-05-02T05:12:41.090Z,98413.39
2023-05-02T05:14:06.136Z,98415.09
2023-05-02T05:15:29.853Z,98416.23
2023-05-02T05:16:55.572Z,98416.09
2023-05-02T05:18:29.396Z,98413.60
2023-05-02T05:19:53.348Z,98409.46
2023-05-02T05:21:22.218Z,98407.52
2023-05-02T05:22:45.002Z,98409.91
2023-05-02T05:24:19.253Z,98412.35
2023-05-02T05:25:48.954Z,98405.73
2023-05-02T05:27:12.252Z,98407.42
2023-05-02T05:28:39.304Z,98408.79
2023-05-02T05:30:01.664Z,98410.33
2023-05-02T05:31:24.438Z,98407.61
2023-05-02T05:32:50.126Z,98405.63
2023-05-02T05:34:23.088Z,98412.35
2023-05-02T05:36:04.002Z,98413.63
2023-05-02T05:37:25.567Z,98411.98
2023-05-02T05:38:50.870Z,98406.33
2023-05-02T05:40:22.051Z,98415.02
2023-05-02T05:41:50.853Z,98408.55
2023-05-02T05:43:12.445Z,98409.97
2023-05-02T05:44:34.419Z,98414.05
2023-05-02T05:45:58.461Z,98413.95
2023-05-02T05:47:31.264Z,98416.14
2023-05-02T05:48:53.431Z,98414.84
2023-05-02T05:50:17.410Z,98413.23
2023-05-02T05:51:47.576Z,98413.59
2023-05-02T05:53:23.858Z,98411.75
2023-05-02T05:54:48.487Z,98408.85
2023-05-02T05:56:10.172Z,98415.70
2023-05-02T05:57:34.245Z,98417.48
2023-05-02T05:58:59.255Z,98410.70
2023-05-02T06:00:23.346Z,98412.65
2023-05-02T06:01:45.564Z,98418.63
2023-05-02T06:03:09.775Z,98405.55
2023-05-02T06:04:31.926Z,98403.17
2023-05-02T06:05:56.288Z,98422.11
2023-05-02T06:07:17.577Z,98420.76
2023-05-02T06:08:40.368Z,98426.63
2023-05-02T06:10:02.342Z,98422.58
2023-05-02T06:11:29.252Z,98418.63
2023-05-02T06:12:51.807Z,98419.69
2023-05-02T06:14:16.740Z,98420.41
2023-05-02T06:15:40.156Z,98420.27
2023-05-02T06:17:04.437Z,98422.19
2023-05-02T06:18:26.332Z,98424.34
2023-05-02T06:19:50.908Z,98420.70
2023-05-02T06:21:14.610Z,98420.52
2023-05-02T06:22:36.707Z,98423.36
2023-05-02T06:24:00.807Z,98419.38
2023-05-02T06:25:22.512Z,98421.38
2023-05-02T06:26:44.644Z,98430.64
2023-05-02T06:28:06.959Z,98432.33
2023-05-02T06:29:29.074Z,98432.34
2023-05-02T06:30:51.046Z,98433.38
2023-05-02T06:32:12.742Z,98434.29
2023-05-02T06:33:35.408Z,98433.54
2023-05-02T06:34:59.685Z,98438.80
2023-05-02T06:36:28.464Z,98439.65
2023-05-02T06:37:50.592Z,98438.94
2023-05-02T06:39:19.767Z,98443.10
2023-05-02T06:40:45.280Z,98442.92
2023-05-02T06:42:06.812Z,98446.45
2023-05-02T06:43:29.260Z,98448.02
2023-05-02T06:44:51.407Z,98451.73
2023-05-02T06:46:17.464Z,98448.71
2023-05-02T06:47:39.300Z,98451.86
2023-05-02T06:49:00.879Z,98449.59
2023-05-02T06:50:30.129Z,98451.95
2023-05-02T06:51:52.198Z,98447.67
2023-05-02T06:53:14.206Z,98455.47
2023-05-02T06:54:43.876Z,98451.80
2023-05-02T06:56:07.664Z,98457.29
2023-05-02T06:57:36.878Z,98463.63
2023-05-02T06:58:58.477Z,98464.90
2023-05-02T07:00:19.960Z,98463.12
2023-05-02T07:01:42.335Z,98466.02
2023-05-02T07:03:04.337Z,98469.48
2023-05-02T07:04:30.010Z,98466.53
2023-05-02T07:05:52.151Z,98472.88
2023-05-02T07:07:13.660Z,98472.59
2023-05-02T07:08:37.873Z,98468.50
2023-05-02T07:09:59.957Z,98469.04
2023-05-02T07:11:23.512Z,98475.57
2023-05-02T07:12:45.580Z,98472.10
2023-05-02T07:14:07.271Z,98471.23
2023-05-02T07:15:28.997Z,98471.75
2023-05-02T07:16:50.961Z,98476.96
2023-05-02T07:18:12.602Z,98477.20
2023-05-02T07:19:38.855Z,98474.89
2023-05-02T07:21:02.825Z,98482.53
2023-05-02T07:22:27.001Z,98489.83
2023-05-02T07:23:49.772Z,98483.59
2023-05-02T07:25:11.204Z,98488.39
2023-05-02T07:26:32.638Z,98494.77
2023-05-02T07:27:54.461Z,98493.66
2023-05-02T07:29:18.183Z,98496.00
2023-05-02T07:30:40.254Z,98496.26
2023-05-02T07:32:02.281Z,98500.20
2023-05-02T07:33:26.000Z,98501.58
2023-05-02T07:34:48.411Z,98504.11
2023-05-02T07:36:12.671Z,98505.52
2023-05-02T07:37:41.953Z,98511.05
2023-05-02T07:39:04.037Z,98513.88
2023-05-02T07:40:25.792Z,98511.23
2023-05-02T07:41:47.778Z,98509.48
2023-05-02T07:43:11.336Z,98514.93
2023-05-02T07:44:34.981Z,98513.23
2023-05-02T07:45:57.170Z,98514.58
2023-05-02T07:47:18.606Z,98516.64
2023-05-02T07:48:42.093Z,98515.59
2023-05-02T07:50:11.391Z,98513.45
2023-05-02T07:51:36.348Z,98516.69
2023-05-02T07:52:58.111Z,98518.23
2023-05-02T07:54:19.357Z,98519.94
2023-05-02T07:55:43.943Z,98522.27
2023-05-02T07:57:08.703Z,98526.32
2023-05-02T07:58:30.318Z,98533.44
2023-05-02T07:59:59.846Z,98539.77
2023-05-02T08:01:21.873Z,98542.05
2023-05-02T08:02:44.426Z,98540.59
2023-05-02T08:04:06.443Z,98542.53
2023-05-02T08:05:28.092Z,98546.21
2023-05-02T08:06:50.333Z,98547.88
2023-05-02T08:08:12.310Z,98546.61
2023-05-02T08:09:41.467Z,98553.39
2023-05-02T08:11:10.719Z,98549.36
2023-05-02T08:12:32.485Z,98552.35
2023-05-02T08:13:54.407Z,98551.66
2023-05-02T08:15:16.119Z,98554.66
2023-05-02T08:16:40.408Z,98557.06
2023-05-02T08:18:02.054Z,98557.88
2023-05-02T08:19:35.148Z,98559.04
2023-05-02T08:20:58.641Z,98558.61
2023-05-02T08:22:24.815Z,98556.12
2023-05-02T08:25:59.980Z,98554.09
2023-05-02T08:27:20.051Z,98559.06
2023-05-02T08:28:40.507Z,98559.69
2023-05-02T08:30:01.304Z,98563.52
2023-05-02T08:31:21.303Z,98566.71
2023-05-02T08:32:54.105Z,98565.48
2023-05-02T08:34:13.995Z,98575.44
2023-05-02T08:35:39.801Z,98574.16
2023-05-02T08:36:59.849Z,98575.67
2023-05-02T08:38:19.729Z,98577.45
2023-05-02T08:39:40.177Z,98579.11
2023-05-02T08:41:00.622Z,98580.69
2023-05-02T08:42:20.808Z,98581.48
2023-05-02T08:43:41.385Z,98583.30
2023-05-02T08:45:01.442Z,98585.58
2023-05-02T08:46:21.450Z,98583.41
2023-05-02T08:47:42.338Z,98592.77
2023-05-02T08:49:02.792Z,98587.06
2023-05-02T08:50:22.696Z,98598.36
2023-05-02T08:51:50.958Z,98593.02
2023-05-02T08:53:10.975Z,98596.91
2023-05-02T08:54:34.061Z,98596.19
2023-05-02T08:55:54.782Z,98594.77
2023-05-02T08:57:14.904Z,98594.77
2023-05-02T08:58:35.357Z,98595.86
2023-05-02T08:59:56.022Z,98594.79
2023-05-02T09:01:20.585Z,98602.76
2023-05-02T09:02:43.649Z,98607.86
2023-05-02T09:04:04.192Z,98610.80
2023-05-02T09:05:24.788Z,98608.05
2023-05-02T09:06:45.012Z,98613.67
2023-05-02T09:08:05.291Z,98612.63
2023-05-02T09:09:37.123Z,98613.02
2023-05-02T09:10:58.067Z,98618.30
2023-05-02T09:12:20.310Z,98621.88
2023-05-02T09:13:40.589Z,98627.00
2023-05-02T09:15:01.114Z,98627.58
2023-05-02T09:16:24.848Z,98634.61
2023-05-02T09:17:45.466Z,98631.36
2023-05-02T09:19:05.669Z,98633.96
2023-05-02T09:20:25.934Z,98628.80
2023-05-02T09:21:54.210Z,98629.23
2023-05-02T09:23:14.595Z,98636.07
2023-05-02T09:24:37.467Z,98641.61
2023-05-02T09:25:57.551Z,98636.27
2023-05-02T09:27:17.669Z,98643.94
2023-05-02T09:28:37.961Z,98643.94
2023-05-02T09:29:58.282Z,98651.83
2023-05-02T09:31:27.011Z,98650.55
2023-05-02T09:32:59.300Z,98651.77
2023-05-02T09:34:19.315Z,98655.92
2023-05-02T09:35:39.480Z,98653.02
2023-05-02T09:36:59.719Z,98657.31
2023-05-02T09:38:24.951Z,98654.70
2023-05-02T09:39:45.178Z,98659.12
2023-05-02T09:41:08.101Z,98656.52
2023-05-02T09:42:27.988Z,98660.56
2023-05-02T09:43:51.165Z,98659.35
2023-05-02T09:45:11.196Z,98659.09
2023-05-02T09:46:34.035Z,98663.52
2023-05-02T09:47:54.664Z,98661.06
2023-05-02T09:49:14.613Z,98664.45
2023-05-02T09:50:35.406Z,98651.77
2023-05-02T09:51:56.012Z,98664.66
2023-05-02T09:53:16.258Z,98667.09
2023-05-02T09:54:37.254Z,98672.55
2023-05-02T09:55:57.073Z,98673.86
2023-05-02T09:57:20.225Z,98677.20
2023-05-02T09:58:41.061Z,98673.80
2023-05-02T10:00:04.271Z,98660.95
2023-05-02T10:01:32.762Z,98674.86
2023-05-02T10:02:53.323Z,98675.33
2023-05-02T10:04:18.001Z,98673.71
2023-05-02T10:05:38.463Z,98662.00
2023-05-02T10:06:58.884Z,98678.70
2023-05-02T10:08:19.059Z,98678.33
2023-05-02T10:09:39.608Z,98681.25
2023-05-02T10:11:00.270Z,98687.95
2023-05-02T10:12:20.486Z,98691.16
2023-05-02T10:13:42.087Z,98688.90
2023-05-02T10:15:02.384Z,98693.21
2023-05-02T10:16:30.334Z,98693.44
2023-05-02T10:17:51.323Z,98687.33
2023-05-02T10:19:11.583Z,98691.09
2023-05-02T10:20:31.998Z,98681.95
2023-05-02T10:21:52.641Z,98695.59
2023-05-02T10:23:14.711Z,98693.39
2023-05-02T10:24:35.214Z,98698.41
2023-05-02T10:25:56.043Z,98703.73
2023-05-02T10:27:17.291Z,98705.11
2023-05-02T10:28:37.737Z,98703.63
2023-05-02T10:29:58.314Z,98707.18
2023-05-02T10:31:18.275Z,98713.17
2023-05-02T10:32:38.704Z,98698.98
2023-05-02T10:33:59.076Z,98704.91
2023-05-02T10:35:18.760Z,98702.61
2023-05-02T10:36:39.110Z,98701.59
2023-05-02T10:37:59.273Z,98702.53
2023-05-02T10:39:23.639Z,98709.42
2023-05-02T10:40:44.125Z,98708.70
2023-05-02T10:42:04.897Z,98712.74
2023-05-02T10:43:25.159Z,98713.10
2023-05-02T10:44:46.110Z,98715.54
2023-05-02T10:46:06.604Z,98710.50
2023-05-02T10:47:27.198Z,98713.23
2023-05-02T10:48:47.896Z,98709.89
2023-05-02T10:50:08.063Z,98710.73
2023-05-02T10:51:29.021Z,98714.34
2023-05-02T10:52:49.771Z,98714.32
2023-05-02T10:54:12.982Z,98715.34
2023-05-02T10:55:33.201Z,98714.88
2023-05-02T10:57:05.304Z,98717.27
2023-05-02T10:58:27.803Z,98718.39
2023-05-02T10:59:48.976Z,98718.02
2023-05-02T11:01:09.115Z,98716.19
2023-05-02T11:02:30.182Z,98721.58
2023-05-02T11:03:50.963Z,98718.35
2023-05-02T11:05:11.310Z,98722.36
2023-05-02T11:06:32.731Z,98727.39
2023-05-02T11:07:53.371Z,98723.13
2023-05-02T11:09:14.317Z,98728.95
2023-05-02T11:10:34.553Z,98725.73
2023-05-02T11:11:55.753Z,98722.98
2023-05-02T11:13:15.794Z,98726.79
2023-05-02T11:14:36.333Z,98730.55
2023-05-02T11:15:56.567Z,98731.10
2023-05-02T11:17:16.798Z,98734.77
2023-05-02T11:18:37.214Z,98731.41
2023-05-02T11:19:57.332Z,98736.79
2023-05-02T11:21:17.506Z,98740.21
2023-05-02T11:22:37.865Z,98734.64
2023-05-02T11:23:58.376Z,98743.11
2023-05-02T11:25:30.993Z,98741.42
2023-05-02T11:26:51.859Z,98736.44
2023-05-02T11:28:12.189Z,98749.13
2023-05-02T11:29:32.295Z,98754.95
2023-05-02T11:30:56.123Z,98756.44
2023-05-02T11:32:16.847Z,98750.97
2023-05-02T11:33:37.720Z,98759.94
2023-05-02T11:34:58.246Z,98761.36
2023-05-02T11:36:18.677Z,98760.73
2023-05-02T11:37:39.049Z,98760.31
2023-05-02T11:38:58.973Z,98764.52
2023-05-02T11:40:22.065Z,98769.05
2023-05-02T11:41:42.171Z,98772.58
2023-05-02T11:43:02.328Z,98770.30
2023-05-02T11:44:22.398Z,98769.98
2023-05-02T11:45:43.015Z,98764.66
2023-05-02T11:47:03.857Z,98769.47
2023-05-02T11:48:27.070Z,98773.92
2023-05-02T11:49:47.392Z,98777.41
2023-05-02T11:51:07.782Z,98778.05
2023-05-02T11:52:30.592Z,98780.83
2023-05-02T11:53:52.223Z,98776.99
2023-05-02T11:55:12.409Z,98782.23
2023-05-02T11:56:32.376Z,98779.20
2023-05-02T11:57:52.822Z,98762.27
2023-05-02T11:59:12.841Z,98776.70
2023-05-02T12:00:33.007Z,98780.08
2023-05-02T12:01:55.182Z,98766.88
2023-05-02T12:03:14.973Z,98776.36
2023-05-02T12:04:35.495Z,98781.60
2023-05-02T12:06:09.150Z,98782.59
2023-05-02T12:07:32.277Z,98786.45
2023-05-02T12:08:54.849Z,98782.27
2023-05-02T12:10:17.179Z,98787.05
2023-05-02T12:11:38.191Z,98788.05
2023-05-02T12:12:58.269Z,98791.52
2023-05-02T12:14:19.654Z,98794.17
2023-05-02T12:15:40.370Z,98791.08
2023-05-02T12:17:00.870Z,98795.89
2023-05-02T12:18:22.709Z,98794.45
2023-05-02T12:19:42.921Z,98798.14
2023-05-02T12:21:02.933Z,98792.69
2023-05-02T12:22:22.699Z,98799.67
2023-05-02T12:23:44.111Z,98798.53
2023-05-02T12:25:06.735Z,98798.80
2023-05-02T12:26:31.934Z,98795.80
2023-05-02T12:27:52.712Z,98798.80
2023-05-02T12:29:12.855Z,98799.25
2023-05-02T12:30:35.243Z,98796.70
2023-05-02T12:32:07.706Z,98795.98
2023-05-02T12:33:27.823Z,98801.69
2023-05-02T12:34:48.889Z,98804.05
2023-05-02T12:36:09.629Z,98801.52
2023-05-02T12:37:31.989Z,98803.34
2023-05-02T12:38:54.560Z,98796.02
2023-05-02T12:40:17.562Z,98799.23
2023-05-02T12:41:45.298Z,98800.50
2023-05-02T12:43:07.733Z,98802.29
2023-05-02T12:44:27.658Z,98804.67
2023-05-02T12:45:49.154Z,98806.08
2023-05-02T12:47:09.575Z,98808.70
2023-05-02T12:48:30.096Z,98811.10
2023-05-02T12:49:51.325Z,98812.48
2023-05-02T12:51:12.158Z,98813.36
2023-05-02T12:52:32.232Z,98812.13
2023-05-02T12:53:52.776Z,98807.44
2023-05-02T12:55:13.045Z,98817.39
2023-05-02T12:56:33.984Z,98817.20
2023-05-02T12:57:54.704Z,98815.75
2023-05-02T12:59:14.888Z,98817.95
2023-05-02T13:00:34.872Z,98818.33
2023-05-02T13:01:55.585Z,98820.24
2023-05-02T13:03:16.324Z,98821.64
2023-05-02T13:04:42.089Z,98817.12
2023-05-02T13:06:02.672Z,98821.72
2023-05-02T13:07:22.571Z,98818.55
2023-05-02T13:08:42.886Z,98823.91
2023-05-02T13:10:05.701Z,98821.13
2023-05-02T13:11:25.567Z,98822.79
2023-05-02T13:12:47.404Z,98823.20
2023-05-02T13:14:07.306Z,98820.89
2023-05-02T13:15:27.037Z,98826.17
2023-05-02T13:16:47.446Z,98823.95
2023-05-02T13:18:10.109Z,98829.89
2023-05-02T13:19:35.945Z,98830.52
2023-05-02T13:20:58.246Z,98823.15
2023-05-02T13:22:20.791Z,98827.27
2023-05-02T13:23:43.390Z,98831.80
2023-05-02T13:25:06.768Z,98830.66
2023-05-02T13:26:26.571Z,98828.39
2023-05-02T13:27:50.177Z,98828.57
2023-05-02T13:29:12.381Z,98830.89
2023-05-02T13:30:32.502Z,98832.42
2023-05-02T13:31:53.266Z,98824.78
2023-05-02T13:33:13.397Z,98828.93
2023-05-02T13:34:35.929Z,98831.39
2023-05-02T13:35:56.828Z,98832.77
2023-05-02T13:37:19.274Z,98817.98
2023-05-02T13:38:39.885Z,98830.61
2023-05-02T13:40:00.862Z,98828.84
2023-05-02T13:41:21.330Z,98832.13
2023-05-02T13:42:41.981Z,98828.17
2023-05-02T13:44:05.009Z,98830.08
2023-05-02T13:45:25.257Z,98828.63
2023-05-02T13:46:46.446Z,98825.70
2023-05-02T13:48:06.785Z,98828.88
2023-05-02T13:49:27.332Z,98823.02
2023-05-02T13:50:48.157Z,98814.11
2023-05-02T13:52:08.075Z,98827.48
2023-05-02T13:53:28.090Z,98829.14
2023-05-02T13:54:49.035Z,98824.04
2023-05-02T13:56:09.396Z,98828.92
2023-05-02T13:57:31.889Z,98826.27
2023-05-02T13:59:00.054Z,98816.88
2023-05-02T14:00:20.434Z,98819.32
2023-05-02T14:01:40.970Z,98823.27
2023-05-02T14:03:10.672Z,98824.54
2023-05-02T14:04:31.076Z,98821.73
2023-05-02T14:05:54.093Z,98817.03
2023-05-02T14:07:21.762Z,98820.70
2023-05-02T14:08:44.660Z,98818.62
2023-05-02T14:10:04.969Z,98816.68
2023-05-02T14:11:25.220Z,98815.23
2023-05-02T14:12:45.851Z,98815.50
2023-05-02T14:14:09.077Z,98811.88
2023-05-02T14:15:31.651Z,98808.16
2023-05-02T14:17:07.163Z,98805.21
2023-05-02T14:18:27.041Z,98808.50
2023-05-02T14:19:48.437Z,98813.21
2023-05-02T14:21:08.921Z,98809.76
2023-05-02T14:22:28.984Z,98810.72
2023-05-02T14:23:49.603Z,98803.82
2023-05-02T14:25:13.418Z,98815.61
2023-05-02T14:26:35.565Z,98809.77
2023-05-02T14:27:56.477Z,98815.71
2023-05-02T14:29:17.785Z,98811.14
2023-05-02T14:30:37.885Z,98812.31
2023-05-02T14:32:07.733Z,98811.73
2023-05-02T14:33:27.840Z,98808.13
2023-05-02T14:34:48.636Z,98794.90
2023-05-02T14:36:08.809Z,98805.34
2023-05-02T14:37:28.663Z,98804.09
2023-05-02T14:38:49.344Z,98803.84
2023-05-02T14:40:10.053Z,98807.02
2023-05-02T14:41:29.910Z,98804.92
2023-05-02T14:42:51.216Z,98804.77
2023-05-02T14:44:11.161Z,98803.89
2023-05-02T14:45:31.080Z,98809.04
2023-05-02T14:46:51.695Z,98801.71
2023-05-02T14:48:13.427Z,98807.05
2023-05-02T14:49:33.330Z,98806.07
2023-05-02T14:50:54.077Z,98806.84
2023-05-02T14:52:13.772Z,98807.98
2023-05-02T14:53:33.805Z,98808.05
2023-05-02T14:54:54.489Z,98805.52
2023-05-02T14:56:16.458Z,98806.83
2023-05-02T14:57:36.983Z,98800.10
2023-05-02T14:59:00.025Z,98803.77
2023-05-02T15:00:21.142Z,98803.60
2023-05-02T15:01:41.465Z,98806.67
2023-05-02T15:03:02.534Z,98808.34
2023-05-02T15:04:26.000Z,98807.82
2023-05-02T15:05:46.772Z,98806.84
2023-05-02T15:07:09.521Z,98808.61
2023-05-02T15:08:34.528Z,98800.34
2023-05-02T15:10:17.932Z,98811.38
2023-05-02T15:11:46.281Z,98808.02
2023-05-02T15:13:07.954Z,98794.56
2023-05-02T15:14:27.658Z,98811.83
2023-05-02T15:15:53.105Z,98810.02
2023-05-02T15:17:13.369Z,98812.74
2023-05-02T15:18:33.700Z,98809.37
2023-05-02T15:19:57.001Z,98811.58
2023-05-02T15:21:19.162Z,98810.60
2023-05-02T15:22:39.760Z,98811.64
2023-05-02T15:24:00.110Z,98811.33
2023-05-02T15:25:20.232Z,98816.35
2023-05-02T15:26:40.652Z,98812.81
2023-05-02T15:28:02.437Z,98813.34
2023-05-02T15:29:22.234Z,98813.21
2023-05-02T15:30:42.633Z,98808.41
2023-05-02T15:32:02.568Z,98807.79
2023-05-02T15:33:23.117Z,98801.10
2023-05-02T15:34:43.887Z,98806.40
2023-05-02T15:36:04.181Z,98808.20
2023-05-02T15:37:23.929Z,98814.42
2023-05-02T15:38:44.899Z,98806.04
2023-05-02T15:40:06.320Z,98808.98
2023-05-02T15:41:26.829Z,98808.09
2023-05-02T15:42:51.887Z,98805.79
2023-05-02T15:44:12.449Z,98814.10
2023-05-02T15:45:33.358Z,98812.42
2023-05-02T15:46:55.229Z,98808.29
2023-05-02T15:48:15.486Z,98815.12
2023-05-02T15:49:35.833Z,98797.52
2023-05-02T15:50:56.982Z,98811.78
2023-05-02T15:52:17.230Z,98811.02
2023-05-02T15:53:41.740Z,98809.34
2023-05-02T15:55:02.699Z,98807.29
2023-05-02T15:56:23.006Z,98814.12
2023-05-02T15:57:43.568Z,98814.25
2023-05-02T15:59:03.879Z,98814.42
2023-05-02T16:00:24.157Z,98816.67
2023-05-02T16:01:46.892Z,98816.05
2023-05-02T16:03:09.429Z,98820.61
2023-05-02T16:04:31.336Z,98820.84
2023-05-02T16:05:52.553Z,98818.74
2023-05-02T16:07:12.447Z,98823.74
2023-05-02T16:08:35.317Z,98826.13
2023-05-02T16:09:56.084Z,98826.23
2023-05-02T16:11:16.133Z,98827.15
2023-05-02T16:12:36.434Z,98826.48
2023-05-02T16:14:00.028Z,98823.98
2023-05-02T16:15:20.420Z,98829.89
2023-05-02T16:16:40.934Z,98832.66
2023-05-02T16:18:01.428Z,98837.39
2023-05-02T16:19:23.761Z,98833.04
2023-05-02T16:20:44.368Z,98829.80
2023-05-02T16:22:08.360Z,98832.41